sensor_id;sensor_type;location;lat;lon;timestamp;P1;durP1;ratioP1;P2;durP2;ratioP2
12332;SDS011;6232;48.094;11.288;2022-07-29T00:00:49;4.63;;;2.63;;
12332;SDS011;6232;48.094;11.288;2022-07-29T00:03:34;3.03;;;2.73;;
12332;SDS011;6232;48.094;11.288;2022-07-29T00:06:20;3.43;;;2.77;;
12332;SDS011;6232;48.094;11.288;2022-07-29T00:09:06;6.27;;;3.40;;
12332;SDS011;6232;48.094;11.288;2022-07-29T00:11:52;3.17;;;2.97;;
12332;SDS011;6232;48.094;11.288;2022-07-29T00:14:37;3.67;;;2.80;;
12332;SDS011;6232;48.094;11.288;2022-07-29T00:17:23;3.40;;;3.10;;
12332;SDS011;6232;48.094;11.288;2022-07-29T00:20:09;2.80;;;2.60;;
12332;SDS011;6232;48.094;11.288;2022-07-29T00:22:55;8.40;;;3.13;;
12332;SDS011;6232;48.094;11.288;2022-07-29T00:25:40;4.43;;;2.40;;
12332;SDS011;6232;48.094;11.288;2022-07-29T00:28:26;2.57;;;2.30;;
12332;SDS011;6232;48.094;11.288;2022-07-29T00:31:12;2.60;;;2.40;;
12332;SDS011;6232;48.094;11.288;2022-07-29T00:33:57;2.90;;;2.60;;
12332;SDS011;6232;48.094;11.288;2022-07-29T00:36:43;4.13;;;2.30;;
12332;SDS011;6232;48.094;11.288;2022-07-29T00:39:28;2.83;;;2.20;;
12332;SDS011;6232;48.094;11.288;2022-07-29T00:42:14;3.77;;;2.57;;
12332;SDS011;6232;48.094;11.288;2022-07-29T00:45:00;4.83;;;2.43;;
12332;SDS011;6232;48.094;11.288;2022-07-29T00:47:45;3.00;;;2.80;;
12332;SDS011;6232;48.094;11.288;2022-07-29T00:50:31;3.00;;;2.70;;
12332;SDS011;6232;48.094;11.288;2022-07-29T00:53:17;4.03;;;2.77;;
12332;SDS011;6232;48.094;11.288;2022-07-29T00:56:04;3.07;;;2.30;;
12332;SDS011;6232;48.094;11.288;2022-07-29T00:58:50;2.43;;;2.23;;
12332;SDS011;6232;48.094;11.288;2022-07-29T01:01:35;2.33;;;2.13;;
12332;SDS011;6232;48.094;11.288;2022-07-29T01:04:21;2.43;;;2.23;;
12332;SDS011;6232;48.094;11.288;2022-07-29T01:07:07;2.10;;;2.00;;
12332;SDS011;6232;48.094;11.288;2022-07-29T01:09:53;2.60;;;2.40;;
12332;SDS011;6232;48.094;11.288;2022-07-29T01:12:39;2.40;;;2.20;;
12332;SDS011;6232;48.094;11.288;2022-07-29T01:15:25;2.47;;;2.27;;
12332;SDS011;6232;48.094;11.288;2022-07-29T01:18:16;2.20;;;2.00;;
12332;SDS011;6232;48.094;11.288;2022-07-29T01:26:52;2.73;;;2.10;;
12332;SDS011;6232;48.094;11.288;2022-07-29T01:29:41;2.90;;;1.97;;
12332;SDS011;6232;48.094;11.288;2022-07-29T01:32:29;2.20;;;2.10;;
12332;SDS011;6232;48.094;11.288;2022-07-29T01:35:31;1.67;;;1.57;;
12332;SDS011;6232;48.094;11.288;2022-07-29T01:38:22;1.90;;;1.77;;
12332;SDS011;6232;48.094;11.288;2022-07-29T01:41:12;4.00;;;3.70;;
12332;SDS011;6232;48.094;11.288;2022-07-29T01:43:59;2.53;;;2.10;;
12332;SDS011;6232;48.094;11.288;2022-07-29T01:46:51;3.57;;;2.00;;
12332;SDS011;6232;48.094;11.288;2022-07-29T01:49:39;2.07;;;1.87;;
12332;SDS011;6232;48.094;11.288;2022-07-29T01:55:42;2.73;;;2.00;;
12332;SDS011;6232;48.094;11.288;2022-07-29T01:58:29;2.00;;;1.90;;
12332;SDS011;6232;48.094;11.288;2022-07-29T02:01:15;2.63;;;2.23;;
12332;SDS011;6232;48.094;11.288;2022-07-29T02:04:04;2.00;;;1.80;;
12332;SDS011;6232;48.094;11.288;2022-07-29T02:06:52;2.40;;;1.90;;
12332;SDS011;6232;48.094;11.288;2022-07-29T02:09:38;3.00;;;2.10;;
12332;SDS011;6232;48.094;11.288;2022-07-29T02:12:25;3.67;;;1.87;;
12332;SDS011;6232;48.094;11.288;2022-07-29T02:15:10;2.40;;;2.03;;
12332;SDS011;6232;48.094;11.288;2022-07-29T02:18:01;1.97;;;1.87;;
12332;SDS011;6232;48.094;11.288;2022-07-29T02:20:48;2.57;;;2.10;;
12332;SDS011;6232;48.094;11.288;2022-07-29T02:23:34;2.27;;;1.70;;
12332;SDS011;6232;48.094;11.288;2022-07-29T02:26:21;1.90;;;1.80;;
12332;SDS011;6232;48.094;11.288;2022-07-29T02:29:08;2.60;;;2.40;;
12332;SDS011;6232;48.094;11.288;2022-07-29T02:31:54;2.37;;;2.17;;
12332;SDS011;6232;48.094;11.288;2022-07-29T02:34:40;3.00;;;2.53;;
12332;SDS011;6232;48.094;11.288;2022-07-29T02:37:26;2.47;;;2.27;;
12332;SDS011;6232;48.094;11.288;2022-07-29T02:40:13;2.33;;;2.17;;
12332;SDS011;6232;48.094;11.288;2022-07-29T02:43:00;3.37;;;2.30;;
12332;SDS011;6232;48.094;11.288;2022-07-29T02:45:47;2.47;;;2.20;;
12332;SDS011;6232;48.094;11.288;2022-07-29T02:48:36;2.40;;;2.13;;
12332;SDS011;6232;48.094;11.288;2022-07-29T02:51:28;2.90;;;2.60;;
12332;SDS011;6232;48.094;11.288;2022-07-29T02:54:18;2.20;;;1.97;;
12332;SDS011;6232;48.094;11.288;2022-07-29T02:57:14;5.30;;;2.90;;
12332;SDS011;6232;48.094;11.288;2022-07-29T03:00:03;2.30;;;2.20;;
12332;SDS011;6232;48.094;11.288;2022-07-29T03:02:50;2.17;;;1.97;;
12332;SDS011;6232;48.094;11.288;2022-07-29T03:05:36;2.27;;;2.07;;
12332;SDS011;6232;48.094;11.288;2022-07-29T03:08:22;2.60;;;2.40;;
12332;SDS011;6232;48.094;11.288;2022-07-29T03:11:08;2.37;;;2.17;;
12332;SDS011;6232;48.094;11.288;2022-07-29T03:13:54;2.60;;;2.37;;
12332;SDS011;6232;48.094;11.288;2022-07-29T03:16:39;2.63;;;2.43;;
12332;SDS011;6232;48.094;11.288;2022-07-29T03:19:25;3.00;;;2.10;;
12332;SDS011;6232;48.094;11.288;2022-07-29T03:22:11;2.33;;;2.13;;
12332;SDS011;6232;48.094;11.288;2022-07-29T03:24:57;3.50;;;1.93;;
12332;SDS011;6232;48.094;11.288;2022-07-29T03:27:43;2.27;;;2.07;;
12332;SDS011;6232;48.094;11.288;2022-07-29T03:30:28;2.50;;;2.30;;
12332;SDS011;6232;48.094;11.288;2022-07-29T03:33:15;2.50;;;1.97;;
12332;SDS011;6232;48.094;11.288;2022-07-29T03:36:01;2.20;;;2.00;;
12332;SDS011;6232;48.094;11.288;2022-07-29T03:38:47;3.80;;;2.17;;
12332;SDS011;6232;48.094;11.288;2022-07-29T03:41:35;2.43;;;2.20;;
12332;SDS011;6232;48.094;11.288;2022-07-29T03:44:21;2.13;;;1.90;;
12332;SDS011;6232;48.094;11.288;2022-07-29T03:47:07;2.50;;;2.30;;
12332;SDS011;6232;48.094;11.288;2022-07-29T03:49:56;4.97;;;2.20;;
12332;SDS011;6232;48.094;11.288;2022-07-29T03:52:45;2.50;;;2.23;;
12332;SDS011;6232;48.094;11.288;2022-07-29T03:55:32;2.40;;;2.20;;
12332;SDS011;6232;48.094;11.288;2022-07-29T03:58:18;2.60;;;2.20;;
12332;SDS011;6232;48.094;11.288;2022-07-29T04:01:04;2.10;;;1.90;;
12332;SDS011;6232;48.094;11.288;2022-07-29T04:03:50;2.50;;;2.30;;
12332;SDS011;6232;48.094;11.288;2022-07-29T04:09:25;2.80;;;1.60;;
12332;SDS011;6232;48.094;11.288;2022-07-29T04:12:10;1.90;;;1.73;;
12332;SDS011;6232;48.094;11.288;2022-07-29T04:14:56;2.27;;;1.90;;
12332;SDS011;6232;48.094;11.288;2022-07-29T04:17:41;2.73;;;1.70;;
12332;SDS011;6232;48.094;11.288;2022-07-29T04:20:27;1.73;;;1.63;;
12332;SDS011;6232;48.094;11.288;2022-07-29T04:23:12;2.00;;;1.80;;
12332;SDS011;6232;48.094;11.288;2022-07-29T04:25:58;2.07;;;1.97;;
12332;SDS011;6232;48.094;11.288;2022-07-29T04:28:43;4.90;;;1.90;;
12332;SDS011;6232;48.094;11.288;2022-07-29T04:31:29;2.17;;;1.97;;
12332;SDS011;6232;48.094;11.288;2022-07-29T04:34:15;2.07;;;1.97;;
12332;SDS011;6232;48.094;11.288;2022-07-29T04:37:00;2.30;;;1.80;;
12332;SDS011;6232;48.094;11.288;2022-07-29T04:39:46;2.80;;;2.27;;
12332;SDS011;6232;48.094;11.288;2022-07-29T04:42:31;5.67;;;2.40;;
12332;SDS011;6232;48.094;11.288;2022-07-29T04:45:17;2.43;;;1.97;;
12332;SDS011;6232;48.094;11.288;2022-07-29T04:48:02;3.30;;;2.87;;
12332;SDS011;6232;48.094;11.288;2022-07-29T04:50:48;2.70;;;2.10;;
12332;SDS011;6232;48.094;11.288;2022-07-29T04:53:34;2.33;;;2.10;;
12332;SDS011;6232;48.094;11.288;2022-07-29T04:56:19;2.93;;;1.90;;
12332;SDS011;6232;48.094;11.288;2022-07-29T04:59:05;9.47;;;2.40;;
12332;SDS011;6232;48.094;11.288;2022-07-29T05:01:50;3.37;;;1.90;;
12332;SDS011;6232;48.094;11.288;2022-07-29T05:04:36;2.47;;;2.27;;
12332;SDS011;6232;48.094;11.288;2022-07-29T05:07:21;3.13;;;2.43;;
12332;SDS011;6232;48.094;11.288;2022-07-29T05:10:07;2.93;;;2.37;;
12332;SDS011;6232;48.094;11.288;2022-07-29T05:12:53;3.10;;;2.37;;
12332;SDS011;6232;48.094;11.288;2022-07-29T05:15:38;3.07;;;2.23;;
12332;SDS011;6232;48.094;11.288;2022-07-29T05:18:24;2.23;;;2.03;;
12332;SDS011;6232;48.094;11.288;2022-07-29T05:21:10;4.23;;;2.30;;
12332;SDS011;6232;48.094;11.288;2022-07-29T05:23:57;2.80;;;1.63;;
12332;SDS011;6232;48.094;11.288;2022-07-29T05:26:42;2.37;;;2.20;;
12332;SDS011;6232;48.094;11.288;2022-07-29T05:29:28;2.23;;;2.03;;
12332;SDS011;6232;48.094;11.288;2022-07-29T05:32:13;2.33;;;1.90;;
12332;SDS011;6232;48.094;11.288;2022-07-29T05:34:59;2.30;;;2.10;;
12332;SDS011;6232;48.094;11.288;2022-07-29T05:37:44;1.80;;;1.70;;
12332;SDS011;6232;48.094;11.288;2022-07-29T05:40:30;3.30;;;2.20;;
12332;SDS011;6232;48.094;11.288;2022-07-29T05:43:15;3.03;;;2.00;;
12332;SDS011;6232;48.094;11.288;2022-07-29T05:46:01;1.70;;;1.53;;
12332;SDS011;6232;48.094;11.288;2022-07-29T05:48:47;5.00;;;2.00;;
12332;SDS011;6232;48.094;11.288;2022-07-29T05:51:33;1.87;;;1.60;;
12332;SDS011;6232;48.094;11.288;2022-07-29T05:54:19;1.80;;;1.70;;
12332;SDS011;6232;48.094;11.288;2022-07-29T05:57:04;2.10;;;1.90;;
12332;SDS011;6232;48.094;11.288;2022-07-29T05:59:50;1.80;;;1.70;;
12332;SDS011;6232;48.094;11.288;2022-07-29T06:02:36;1.90;;;1.60;;
12332;SDS011;6232;48.094;11.288;2022-07-29T06:05:22;1.80;;;1.70;;
12332;SDS011;6232;48.094;11.288;2022-07-29T06:08:07;5.00;;;1.80;;
12332;SDS011;6232;48.094;11.288;2022-07-29T06:10:53;1.97;;;1.50;;
12332;SDS011;6232;48.094;11.288;2022-07-29T06:13:38;1.57;;;1.47;;
12332;SDS011;6232;48.094;11.288;2022-07-29T06:16:24;1.73;;;1.63;;
12332;SDS011;6232;48.094;11.288;2022-07-29T06:19:09;9.97;;;2.37;;
12332;SDS011;6232;48.094;11.288;2022-07-29T06:21:55;2.50;;;2.10;;
12332;SDS011;6232;48.094;11.288;2022-07-29T06:24:40;3.63;;;2.30;;
12332;SDS011;6232;48.094;11.288;2022-07-29T06:27:29;2.00;;;1.90;;
12332;SDS011;6232;48.094;11.288;2022-07-29T06:30:15;5.10;;;1.90;;
12332;SDS011;6232;48.094;11.288;2022-07-29T06:33:00;3.47;;;1.97;;
12332;SDS011;6232;48.094;11.288;2022-07-29T06:35:47;2.40;;;2.20;;
12332;SDS011;6232;48.094;11.288;2022-07-29T06:38:33;2.20;;;1.93;;
12332;SDS011;6232;48.094;11.288;2022-07-29T06:41:18;8.10;;;2.20;;
12332;SDS011;6232;48.094;11.288;2022-07-29T06:44:04;5.00;;;1.90;;
12332;SDS011;6232;48.094;11.288;2022-07-29T06:46:49;1.83;;;1.57;;
12332;SDS011;6232;48.094;11.288;2022-07-29T06:49:36;5.73;;;1.73;;
12332;SDS011;6232;48.094;11.288;2022-07-29T06:52:22;1.87;;;1.77;;
12332;SDS011;6232;48.094;11.288;2022-07-29T06:55:08;2.40;;;1.87;;
12332;SDS011;6232;48.094;11.288;2022-07-29T06:57:53;4.00;;;1.87;;
12332;SDS011;6232;48.094;11.288;2022-07-29T07:00:39;5.00;;;2.00;;
12332;SDS011;6232;48.094;11.288;2022-07-29T07:03:24;4.67;;;1.93;;
12332;SDS011;6232;48.094;11.288;2022-07-29T07:06:10;2.97;;;2.00;;
12332;SDS011;6232;48.094;11.288;2022-07-29T07:08:55;3.53;;;1.93;;
12332;SDS011;6232;48.094;11.288;2022-07-29T07:11:41;2.87;;;1.83;;
12332;SDS011;6232;48.094;11.288;2022-07-29T07:14:26;3.30;;;1.60;;
12332;SDS011;6232;48.094;11.288;2022-07-29T07:17:13;3.67;;;2.17;;
12332;SDS011;6232;48.094;11.288;2022-07-29T07:19:59;3.20;;;1.80;;
12332;SDS011;6232;48.094;11.288;2022-07-29T07:22:44;4.00;;;1.93;;
12332;SDS011;6232;48.094;11.288;2022-07-29T07:25:30;3.07;;;1.47;;
12332;SDS011;6232;48.094;11.288;2022-07-29T07:28:16;2.27;;;1.50;;
12332;SDS011;6232;48.094;11.288;2022-07-29T07:31:01;1.80;;;1.70;;
12332;SDS011;6232;48.094;11.288;2022-07-29T07:33:47;1.73;;;1.63;;
12332;SDS011;6232;48.094;11.288;2022-07-29T07:36:32;1.60;;;1.50;;
12332;SDS011;6232;48.094;11.288;2022-07-29T07:39:18;1.77;;;1.67;;
12332;SDS011;6232;48.094;11.288;2022-07-29T07:42:03;5.43;;;1.93;;
12332;SDS011;6232;48.094;11.288;2022-07-29T07:44:49;2.00;;;1.70;;
12332;SDS011;6232;48.094;11.288;2022-07-29T07:47:35;1.70;;;1.60;;
12332;SDS011;6232;48.094;11.288;2022-07-29T07:50:21;1.90;;;1.77;;
12332;SDS011;6232;48.094;11.288;2022-07-29T07:53:07;1.60;;;1.50;;
12332;SDS011;6232;48.094;11.288;2022-07-29T07:55:52;7.60;;;1.70;;
12332;SDS011;6232;48.094;11.288;2022-07-29T07:58:38;3.40;;;2.00;;
12332;SDS011;6232;48.094;11.288;2022-07-29T08:01:23;4.80;;;2.20;;
12332;SDS011;6232;48.094;11.288;2022-07-29T08:04:09;4.07;;;1.70;;
12332;SDS011;6232;48.094;11.288;2022-07-29T08:06:55;2.50;;;2.00;;
12332;SDS011;6232;48.094;11.288;2022-07-29T08:09:41;1.97;;;1.87;;
12332;SDS011;6232;48.094;11.288;2022-07-29T08:12:26;4.93;;;1.83;;
12332;SDS011;6232;48.094;11.288;2022-07-29T08:15:12;3.07;;;1.83;;
12332;SDS011;6232;48.094;11.288;2022-07-29T08:17:57;8.43;;;2.13;;
12332;SDS011;6232;48.094;11.288;2022-07-29T08:20:43;3.73;;;2.13;;
12332;SDS011;6232;48.094;11.288;2022-07-29T08:23:28;2.00;;;1.90;;
12332;SDS011;6232;48.094;11.288;2022-07-29T08:26:23;2.00;;;1.80;;
12332;SDS011;6232;48.094;11.288;2022-07-29T08:29:09;4.70;;;2.50;;
12332;SDS011;6232;48.094;11.288;2022-07-29T08:31:54;2.63;;;1.93;;
12332;SDS011;6232;48.094;11.288;2022-07-29T08:34:40;2.30;;;1.70;;
12332;SDS011;6232;48.094;11.288;2022-07-29T08:37:25;5.07;;;1.80;;
12332;SDS011;6232;48.094;11.288;2022-07-29T08:40:11;2.33;;;2.10;;
12332;SDS011;6232;48.094;11.288;2022-07-29T08:42:57;2.40;;;1.73;;
12332;SDS011;6232;48.094;11.288;2022-07-29T08:45:43;10.10;;;1.97;;
12332;SDS011;6232;48.094;11.288;2022-07-29T08:48:29;3.37;;;1.73;;
12332;SDS011;6232;48.094;11.288;2022-07-29T08:51:17;4.20;;;2.10;;
12332;SDS011;6232;48.094;11.288;2022-07-29T08:54:03;2.13;;;1.83;;
12332;SDS011;6232;48.094;11.288;2022-07-29T08:56:51;2.57;;;2.03;;
12332;SDS011;6232;48.094;11.288;2022-07-29T08:59:37;1.83;;;1.73;;
12332;SDS011;6232;48.094;11.288;2022-07-29T09:02:24;6.67;;;2.27;;
12332;SDS011;6232;48.094;11.288;2022-07-29T09:05:13;3.20;;;2.17;;
12332;SDS011;6232;48.094;11.288;2022-07-29T09:07:59;2.17;;;1.80;;
12332;SDS011;6232;48.094;11.288;2022-07-29T09:10:45;2.23;;;2.03;;
12332;SDS011;6232;48.094;11.288;2022-07-29T09:13:30;2.50;;;2.30;;
12332;SDS011;6232;48.094;11.288;2022-07-29T09:16:16;2.13;;;1.93;;
12332;SDS011;6232;48.094;11.288;2022-07-29T09:19:02;2.40;;;2.13;;
12332;SDS011;6232;48.094;11.288;2022-07-29T09:22:05;2.40;;;2.20;;
12332;SDS011;6232;48.094;11.288;2022-07-29T09:24:50;2.00;;;1.80;;
12332;SDS011;6232;48.094;11.288;2022-07-29T09:27:36;2.50;;;2.30;;
12332;SDS011;6232;48.094;11.288;2022-07-29T09:30:21;2.17;;;1.97;;
12332;SDS011;6232;48.094;11.288;2022-07-29T09:33:08;4.00;;;2.33;;
12332;SDS011;6232;48.094;11.288;2022-07-29T09:38:46;12.97;;;2.40;;
12332;SDS011;6232;48.094;11.288;2022-07-29T09:41:45;3.90;;;2.30;;
12332;SDS011;6232;48.094;11.288;2022-07-29T09:47:44;2.07;;;1.97;;
12332;SDS011;6232;48.094;11.288;2022-07-29T09:50:34;1.80;;;1.70;;
12332;SDS011;6232;48.094;11.288;2022-07-29T09:53:33;2.60;;;2.07;;
12332;SDS011;6232;48.094;11.288;2022-07-29T09:56:19;3.23;;;2.00;;
12332;SDS011;6232;48.094;11.288;2022-07-29T09:59:05;2.10;;;2.00;;
12332;SDS011;6232;48.094;11.288;2022-07-29T10:01:51;3.10;;;2.40;;
12332;SDS011;6232;48.094;11.288;2022-07-29T10:04:38;2.17;;;1.97;;
12332;SDS011;6232;48.094;11.288;2022-07-29T10:07:24;3.40;;;1.97;;
12332;SDS011;6232;48.094;11.288;2022-07-29T10:10:10;6.87;;;2.43;;
12332;SDS011;6232;48.094;11.288;2022-07-29T10:12:59;2.90;;;2.60;;
12332;SDS011;6232;48.094;11.288;2022-07-29T10:15:45;2.33;;;2.10;;
12332;SDS011;6232;48.094;11.288;2022-07-29T10:18:31;2.87;;;2.03;;
12332;SDS011;6232;48.094;11.288;2022-07-29T10:21:17;2.50;;;2.13;;
12332;SDS011;6232;48.094;11.288;2022-07-29T10:24:03;3.03;;;2.43;;
12332;SDS011;6232;48.094;11.288;2022-07-29T10:26:49;3.30;;;2.10;;
12332;SDS011;6232;48.094;11.288;2022-07-29T10:29:35;2.60;;;2.13;;
12332;SDS011;6232;48.094;11.288;2022-07-29T10:35:15;5.80;;;2.33;;
12332;SDS011;6232;48.094;11.288;2022-07-29T10:38:07;2.10;;;2.00;;
12332;SDS011;6232;48.094;11.288;2022-07-29T10:44:07;2.13;;;1.83;;
12332;SDS011;6232;48.094;11.288;2022-07-29T10:46:54;4.83;;;1.90;;
12332;SDS011;6232;48.094;11.288;2022-07-29T10:49:39;3.30;;;2.10;;
12332;SDS011;6232;48.094;11.288;2022-07-29T10:55:35;2.00;;;1.90;;
12332;SDS011;6232;48.094;11.288;2022-07-29T10:58:23;4.60;;;1.90;;
12332;SDS011;6232;48.094;11.288;2022-07-29T11:01:27;2.37;;;2.03;;
12332;SDS011;6232;48.094;11.288;2022-07-29T11:04:14;6.63;;;1.93;;
12332;SDS011;6232;48.094;11.288;2022-07-29T11:12:56;2.57;;;2.10;;
12332;SDS011;6232;48.094;11.288;2022-07-29T11:15:54;3.00;;;2.20;;
12332;SDS011;6232;48.094;11.288;2022-07-29T11:19:18;4.13;;;2.13;;
12332;SDS011;6232;48.094;11.288;2022-07-29T11:21:51;3.30;;;2.07;;
12332;SDS011;6232;48.094;11.288;2022-07-29T11:24:38;2.83;;;2.40;;
12332;SDS011;6232;48.094;11.288;2022-07-29T11:27:23;3.00;;;2.13;;
12332;SDS011;6232;48.094;11.288;2022-07-29T11:30:15;3.70;;;2.10;;
12332;SDS011;6232;48.094;11.288;2022-07-29T11:33:01;2.50;;;1.70;;
12332;SDS011;6232;48.094;11.288;2022-07-29T11:36:05;4.83;;;2.20;;
12332;SDS011;6232;48.094;11.288;2022-07-29T11:38:52;2.40;;;2.13;;
12332;SDS011;6232;48.094;11.288;2022-07-29T11:47:56;4.07;;;2.60;;
12332;SDS011;6232;48.094;11.288;2022-07-29T11:50:43;5.73;;;2.20;;
12332;SDS011;6232;48.094;11.288;2022-07-29T11:53:29;3.60;;;2.30;;
12332;SDS011;6232;48.094;11.288;2022-07-29T11:56:15;2.47;;;2.00;;
12332;SDS011;6232;48.094;11.288;2022-07-29T11:59:04;3.90;;;2.50;;
12332;SDS011;6232;48.094;11.288;2022-07-29T12:01:57;5.73;;;2.77;;
12332;SDS011;6232;48.094;11.288;2022-07-29T12:04:49;2.77;;;2.57;;
12332;SDS011;6232;48.094;11.288;2022-07-29T12:07:35;3.57;;;2.40;;
12332;SDS011;6232;48.094;11.288;2022-07-29T12:10:21;5.60;;;2.60;;
12332;SDS011;6232;48.094;11.288;2022-07-29T12:13:10;4.40;;;2.90;;
12332;SDS011;6232;48.094;11.288;2022-07-29T12:15:56;5.70;;;2.87;;
12332;SDS011;6232;48.094;11.288;2022-07-29T12:18:42;3.30;;;2.40;;
12332;SDS011;6232;48.094;11.288;2022-07-29T12:21:28;3.53;;;2.53;;
12332;SDS011;6232;48.094;11.288;2022-07-29T12:24:14;3.60;;;2.33;;
12332;SDS011;6232;48.094;11.288;2022-07-29T12:26:59;11.20;;;2.93;;
12332;SDS011;6232;48.094;11.288;2022-07-29T12:29:55;2.33;;;2.10;;
12332;SDS011;6232;48.094;11.288;2022-07-29T12:32:44;3.77;;;2.97;;
12332;SDS011;6232;48.094;11.288;2022-07-29T12:35:31;4.50;;;3.00;;
12332;SDS011;6232;48.094;11.288;2022-07-29T12:38:16;10.50;;;2.93;;
12332;SDS011;6232;48.094;11.288;2022-07-29T12:41:05;4.73;;;2.60;;
12332;SDS011;6232;48.094;11.288;2022-07-29T12:43:54;3.70;;;3.00;;
12332;SDS011;6232;48.094;11.288;2022-07-29T12:46:39;4.10;;;2.40;;
12332;SDS011;6232;48.094;11.288;2022-07-29T12:49:25;3.63;;;3.27;;
12332;SDS011;6232;48.094;11.288;2022-07-29T12:52:24;4.83;;;3.30;;
12332;SDS011;6232;48.094;11.288;2022-07-29T12:55:10;5.93;;;3.03;;
12332;SDS011;6232;48.094;11.288;2022-07-29T12:57:55;8.60;;;2.90;;
12332;SDS011;6232;48.094;11.288;2022-07-29T13:00:41;7.50;;;3.20;;
12332;SDS011;6232;48.094;11.288;2022-07-29T13:03:27;8.70;;;3.10;;
12332;SDS011;6232;48.094;11.288;2022-07-29T13:06:32;2.80;;;2.60;;
12332;SDS011;6232;48.094;11.288;2022-07-29T13:09:19;5.27;;;3.13;;
12332;SDS011;6232;48.094;11.288;2022-07-29T13:12:09;4.53;;;2.87;;
12332;SDS011;6232;48.094;11.288;2022-07-29T13:14:57;5.43;;;2.77;;
12332;SDS011;6232;48.094;11.288;2022-07-29T13:17:46;2.40;;;2.20;;
12332;SDS011;6232;48.094;11.288;2022-07-29T13:20:32;6.07;;;2.40;;
12332;SDS011;6232;48.094;11.288;2022-07-29T13:23:17;4.00;;;2.77;;
12332;SDS011;6232;48.094;11.288;2022-07-29T13:26:10;12.67;;;2.30;;
12332;SDS011;6232;48.094;11.288;2022-07-29T13:28:56;7.07;;;3.40;;
12332;SDS011;6232;48.094;11.288;2022-07-29T13:31:42;3.70;;;2.10;;
12332;SDS011;6232;48.094;11.288;2022-07-29T13:34:28;3.17;;;2.93;;
12332;SDS011;6232;48.094;11.288;2022-07-29T13:37:13;2.43;;;2.23;;
12332;SDS011;6232;48.094;11.288;2022-07-29T13:39:59;2.73;;;2.20;;
12332;SDS011;6232;48.094;11.288;2022-07-29T13:42:45;2.67;;;2.47;;
12332;SDS011;6232;48.094;11.288;2022-07-29T13:45:30;3.50;;;2.80;;
12332;SDS011;6232;48.094;11.288;2022-07-29T13:48:16;2.20;;;2.00;;
12332;SDS011;6232;48.094;11.288;2022-07-29T13:51:02;2.40;;;2.17;;
12332;SDS011;6232;48.094;11.288;2022-07-29T13:53:47;2.20;;;2.00;;
12332;SDS011;6232;48.094;11.288;2022-07-29T13:56:33;2.60;;;2.40;;
12332;SDS011;6232;48.094;11.288;2022-07-29T13:59:19;2.03;;;1.93;;
12332;SDS011;6232;48.094;11.288;2022-07-29T14:02:04;3.43;;;2.13;;
12332;SDS011;6232;48.094;11.288;2022-07-29T14:04:50;3.33;;;2.13;;
12332;SDS011;6232;48.094;11.288;2022-07-29T14:07:36;3.60;;;2.70;;
12332;SDS011;6232;48.094;11.288;2022-07-29T14:10:23;4.90;;;2.50;;
12332;SDS011;6232;48.094;11.288;2022-07-29T14:13:09;2.57;;;2.30;;
12332;SDS011;6232;48.094;11.288;2022-07-29T14:15:54;2.53;;;2.17;;
12332;SDS011;6232;48.094;11.288;2022-07-29T14:18:40;2.70;;;2.30;;
12332;SDS011;6232;48.094;11.288;2022-07-29T14:21:25;2.13;;;1.93;;
12332;SDS011;6232;48.094;11.288;2022-07-29T14:24:11;5.65;;;2.40;;
12332;SDS011;6232;48.094;11.288;2022-07-29T14:26:57;2.10;;;1.90;;
12332;SDS011;6232;48.094;11.288;2022-07-29T14:29:43;3.03;;;2.00;;
12332;SDS011;6232;48.094;11.288;2022-07-29T14:32:28;3.43;;;2.50;;
12332;SDS011;6232;48.094;11.288;2022-07-29T14:35:14;2.73;;;2.40;;
12332;SDS011;6232;48.094;11.288;2022-07-29T14:38:00;2.93;;;2.40;;
12332;SDS011;6232;48.094;11.288;2022-07-29T14:40:45;5.60;;;2.30;;
12332;SDS011;6232;48.094;11.288;2022-07-29T14:43:31;6.07;;;3.03;;
12332;SDS011;6232;48.094;11.288;2022-07-29T14:46:17;3.13;;;2.53;;
12332;SDS011;6232;48.094;11.288;2022-07-29T14:49:03;6.60;;;2.60;;
12332;SDS011;6232;48.094;11.288;2022-07-29T14:51:48;5.40;;;2.80;;
12332;SDS011;6232;48.094;11.288;2022-07-29T14:54:34;5.20;;;2.60;;
12332;SDS011;6232;48.094;11.288;2022-07-29T14:57:19;4.47;;;3.03;;
12332;SDS011;6232;48.094;11.288;2022-07-29T15:00:05;7.83;;;2.60;;
12332;SDS011;6232;48.094;11.288;2022-07-29T15:02:54;4.83;;;2.63;;
12332;SDS011;6232;48.094;11.288;2022-07-29T15:05:40;3.90;;;2.77;;
12332;SDS011;6232;48.094;11.288;2022-07-29T15:08:25;3.13;;;2.83;;
12332;SDS011;6232;48.094;11.288;2022-07-29T15:11:13;4.60;;;3.40;;
12332;SDS011;6232;48.094;11.288;2022-07-29T15:13:59;3.30;;;2.77;;
12332;SDS011;6232;48.094;11.288;2022-07-29T15:16:44;3.00;;;2.70;;
12332;SDS011;6232;48.094;11.288;2022-07-29T15:19:30;11.03;;;3.03;;
12332;SDS011;6232;48.094;11.288;2022-07-29T15:22:16;2.87;;;2.57;;
12332;SDS011;6232;48.094;11.288;2022-07-29T15:25:01;4.77;;;2.83;;
12332;SDS011;6232;48.094;11.288;2022-07-29T15:27:47;3.20;;;2.83;;
12332;SDS011;6232;48.094;11.288;2022-07-29T15:30:33;5.93;;;3.17;;
12332;SDS011;6232;48.094;11.288;2022-07-29T15:33:18;3.73;;;2.87;;
12332;SDS011;6232;48.094;11.288;2022-07-29T15:36:04;3.27;;;2.97;;
12332;SDS011;6232;48.094;11.288;2022-07-29T15:38:51;4.40;;;3.40;;
12332;SDS011;6232;48.094;11.288;2022-07-29T15:41:38;4.40;;;2.90;;
12332;SDS011;6232;48.094;11.288;2022-07-29T15:44:24;2.97;;;2.70;;
12332;SDS011;6232;48.094;11.288;2022-07-29T15:47:09;5.03;;;2.63;;
12332;SDS011;6232;48.094;11.288;2022-07-29T15:49:55;5.20;;;2.73;;
12332;SDS011;6232;48.094;11.288;2022-07-29T15:52:41;3.50;;;3.00;;
12332;SDS011;6232;48.094;11.288;2022-07-29T15:55:27;4.20;;;2.80;;
12332;SDS011;6232;48.094;11.288;2022-07-29T15:58:12;3.83;;;2.70;;
12332;SDS011;6232;48.094;11.288;2022-07-29T16:00:58;3.63;;;3.07;;
12332;SDS011;6232;48.094;11.288;2022-07-29T16:03:43;3.20;;;2.83;;
12332;SDS011;6232;48.094;11.288;2022-07-29T16:06:29;4.70;;;3.07;;
12332;SDS011;6232;48.094;11.288;2022-07-29T16:09:15;6.73;;;2.97;;
12332;SDS011;6232;48.094;11.288;2022-07-29T16:12:01;3.53;;;3.23;;
12332;SDS011;6232;48.094;11.288;2022-07-29T16:14:46;4.40;;;2.90;;
12332;SDS011;6232;48.094;11.288;2022-07-29T16:17:33;4.10;;;3.70;;
12332;SDS011;6232;48.094;11.288;2022-07-29T16:20:19;3.20;;;2.90;;
12332;SDS011;6232;48.094;11.288;2022-07-29T16:23:05;5.10;;;3.50;;
12332;SDS011;6232;48.094;11.288;2022-07-29T16:25:51;7.70;;;3.43;;
12332;SDS011;6232;48.094;11.288;2022-07-29T16:28:37;3.73;;;3.43;;
12332;SDS011;6232;48.094;11.288;2022-07-29T16:31:22;12.20;;;3.30;;
12332;SDS011;6232;48.094;11.288;2022-07-29T16:34:08;8.90;;;3.70;;
12332;SDS011;6232;48.094;11.288;2022-07-29T16:36:53;3.73;;;3.40;;
12332;SDS011;6232;48.094;11.288;2022-07-29T16:39:39;3.40;;;3.10;;
12332;SDS011;6232;48.094;11.288;2022-07-29T16:42:25;8.80;;;2.97;;
12332;SDS011;6232;48.094;11.288;2022-07-29T16:45:10;4.20;;;2.80;;
12332;SDS011;6232;48.094;11.288;2022-07-29T16:47:56;3.33;;;2.60;;
12332;SDS011;6232;48.094;11.288;2022-07-29T16:50:41;3.30;;;2.80;;
12332;SDS011;6232;48.094;11.288;2022-07-29T16:53:27;2.40;;;2.20;;
12332;SDS011;6232;48.094;11.288;2022-07-29T16:56:12;4.67;;;2.27;;
12332;SDS011;6232;48.094;11.288;2022-07-29T16:58:58;5.00;;;2.70;;
12332;SDS011;6232;48.094;11.288;2022-07-29T17:01:43;2.80;;;2.33;;
12332;SDS011;6232;48.094;11.288;2022-07-29T17:04:29;2.70;;;2.13;;
12332;SDS011;6232;48.094;11.288;2022-07-29T17:07:15;2.40;;;2.20;;
12332;SDS011;6232;48.094;11.288;2022-07-29T17:10:00;9.17;;;2.83;;
12332;SDS011;6232;48.094;11.288;2022-07-29T17:12:49;4.30;;;2.50;;
12332;SDS011;6232;48.094;11.288;2022-07-29T17:15:34;3.30;;;3.10;;
12332;SDS011;6232;48.094;11.288;2022-07-29T17:18:20;2.50;;;2.30;;
12332;SDS011;6232;48.094;11.288;2022-07-29T17:21:05;3.53;;;2.40;;
12332;SDS011;6232;48.094;11.288;2022-07-29T17:23:51;8.43;;;2.23;;